Latest Weather Observations for Sydney Airport

IDN60901

Issued at 4:51 pm EST Sunday 28 May 2017 (issued every 10 minutes, with the page automatically refreshed every 10 minutes)

About weather observations | Map of Sydney area stations | Latest observations for Sydney area | Other Formats
Station Details ID: 066037 Name: SYDNEY AIRPORT AMO Lat: -33.95 Lon: 151.17 Height: 6.0 m
Data from the previous 72 hours. | See also: Recent months at Sydney Airport
Date/Time
EST
Temp
°C
App
Temp
°C
Dew
Point
°C
Rel
Hum
%
Delta-T
°C
Wind Press
QNH
hPa
Press
MSL
hPa
Rain since
9am
mm
Dir  Spd
km/h
Gust
km/h
Spd
kts
Gust
kts
28/04:30pm 22.3 17.0 8.4 41 7.3 N 26 33 14 18 1008.6 1008.6 0.0
28/04:00pm 22.6 17.1 9.0 42 7.3 N 28 33 15 18 1008.5 1008.5 0.0
28/03:30pm 22.8 17.8 8.1 39 7.7 NNW 24 35 13 19 1008.7 1008.7 0.0
28/03:00pm 23.1 17.0 8.4 39 7.8 NNW 30 37 16 20 1008.8 1008.8 0.0
28/02:30pm 23.7 18.0 8.2 37 8.2 NNW 28 37 15 20 1008.8 1008.8 0.0
28/02:00pm 23.5 18.4 9.1 40 7.8 NNW 26 37 14 20 1009.1 1009.1 0.0
28/01:30pm 23.3 17.8 9.3 41 7.6 NNW 28 37 15 20 1009.4 1009.4 0.0
28/01:00pm 23.1 17.8 11.2 47 6.6 N 30 39 16 21 1009.7 1009.7 0.0
28/12:30pm 22.9 17.8 11.9 50 6.2 NNW 30 37 16 20 1010.2 1010.2 0.0
28/12:00pm 22.1 16.5 11.5 51 5.9 NNW 32 41 17 22 1010.6 1010.6 0.0
28/11:30am 21.6 15.9 11.3 52 5.7 NNW 32 41 17 22 1011.2 1011.2 0.0
28/11:00am 21.4 15.4 12.0 55 5.3 NNW 35 44 19 24 1011.8 1011.8 0.0
28/10:30am 20.4 15.3 11.9 58 4.7 NNW 30 41 16 22 1012.3 1012.3 0.0
28/10:00am 19.4 15.8 11.9 62 4.2 NNW 22 30 12 16 1012.6 1012.6 0.0
28/09:30am 17.5 15.1 11.5 68 3.3 N 15 19 8 10 1012.8 1012.8 0.0
28/09:00am 14.7 12.2 10.9 78 2.0 NNW 15 17 8 9 1013.0 1013.0 0.0
28/08:30am 13.3 10.6 10.3 82 1.6 NW 15 19 8 10 1013.5 1013.5 0.0
28/08:00am 11.9 9.0 9.8 87 1.1 WNW 15 22 8 12 1013.5 1013.5 0.0
28/07:30am 10.7 7.3 9.1 90 0.8 WNW 17 19 9 10 1013.5 1013.5 0.0
28/07:00am 10.9 7.9 9.3 90 0.8 NW 15 19 8 10 1013.2 1013.2 0.0
28/06:30am 11.5 9.5 10.2 92 0.7 NNW 11 13 6 7 1013.2 1013.2 0.0
28/06:00am 11.4 10.3 10.5 94 0.5 NNW 7 9 4 5 1013.1 1013.1 0.0
28/05:30am 11.2 9.5 10.0 92 0.6 NNW 9 11 5 6 1013.1 1013.1 0.0
28/05:00am 11.3 9.3 10.2 93 0.6 NNW 11 13 6 7 1013.2 1013.2 0.0
28/04:30am 11.5 9.2 10.4 93 0.6 NNW 13 15 7 8 1013.4 1013.4 0.0
28/04:00am 11.5 9.5 10.1 91 0.7 N 11 13 6 7 1013.5 1013.5 0.0
28/03:30am 12.1 10.3 11.0 93 0.6 NW 11 13 6 7 1013.9 1013.9 0.0
28/03:00am 12.0 10.2 10.9 93 0.6 WNW 11 13 6 7 1014.3 1014.3 0.0
28/02:30am 12.6 10.8 11.0 90 0.8 WNW 11 13 6 7 1014.5 1014.5 0.0
28/02:00am 13.3 12.1 11.5 89 1.0 WNW 9 11 5 6 1015.0 1015.0 0.0
28/01:30am 13.7 12.6 12.1 90 0.9 WNW 9 9 5 5 1015.2 1015.2 0.0
28/01:00am 13.3 12.4 11.2 87 1.1 NNW 7 9 4 5 1015.4 1015.4 0.0
28/12:30am 14.4 13.2 11.6 83 1.5 NNW 9 11 5 6 1015.8 1015.8 0.0
28/12:00am 15.2 13.5 12.3 83 1.6 N 13 13 7 7 1016.2 1016.2 0.0
 
Date/Time
EST
Temp
°C
App
Temp
°C
Dew
Point
°C
Rel
Hum
%
Delta-T
°C
Wind Press
QNH
hPa
Press
MSL
hPa
Rain since
9am
mm
Dir  Spd
km/h
Gust
km/h
Spd
kts
Gust
kts
27/11:30pm 15.5 13.8 12.3 81 1.7 N 13 13 7 7 1016.5 1016.5 0.0
27/11:00pm 15.8 13.7 12.5 81 1.8 N 15 15 8 8 1016.8 1016.8 0.0
27/10:30pm 16.3 14.3 12.8 80 1.9 N 15 17 8 9 1017.0 1017.0 0.0
27/10:00pm 16.6 15.4 12.8 78 2.1 NW 11 13 6 7 1017.2 1017.2 0.0
27/09:30pm 16.9 16.0 12.6 76 2.4 N 9 11 5 6 1017.2 1017.2 0.0
27/09:00pm 17.2 16.4 12.9 76 2.4 NE 9 11 5 6 1017.3 1017.3 0.0
27/08:30pm 17.2 16.3 12.7 75 2.5 NNE 9 11 5 6 1017.4 1017.4 0.0
27/08:00pm 17.9 16.8 13.0 73 2.7 NE 11 13 6 7 1017.5 1017.5 0.0
27/07:30pm 17.6 16.5 13.1 75 2.5 NE 11 15 6 8 1017.6 1017.6 0.0
27/07:00pm 18.1 17.5 13.6 75 2.5 NE 9 11 5 6 1017.6 1017.6 0.0
27/06:30pm 17.1 15.6 13.2 78 2.2 NE 13 15 7 8 1017.6 1017.6 0.0
27/06:00pm 18.0 16.1 13.1 73 2.7 NE 15 17 8 9 1017.4 1017.4 0.0
27/05:30pm 18.8 16.3 13.4 71 3.1 NNE 19 22 10 12 1017.3 1017.3 0.0
27/05:00pm 19.0 16.4 13.2 69 3.3 NE 19 24 10 13 1017.1 1017.1 0.0
27/04:30pm 18.9 16.4 13.5 71 3.1 NE 19 26 10 14 1017.0 1017.0 0.0
27/04:00pm 19.5 16.4 13.4 68 3.5 NNE 22 26 12 14 1017.2 1017.2 0.0
27/03:30pm 19.9 17.9 13.8 68 3.5 NE 17 22 9 12 1017.4 1017.4 0.0
27/03:00pm 19.8 18.0 14.4 71 3.1 ENE 17 22 9 12 1017.4 1017.4 0.0
27/02:30pm 19.2 17.0 13.2 68 3.4 ENE 17 20 9 11 1017.5 1017.5 0.0
27/02:00pm 19.9 18.9 13.4 66 3.7 ESE 11 15 6 8 1017.7 1017.7 0.0
27/01:30pm 19.9 19.0 13.6 67 3.6 SE 11 13 6 7 1018.0 1018.0 0.0
27/01:00pm 19.6 19.5 14.0 70 3.2 SE 7 9 4 5 1018.5 1018.5 0.0
27/12:30pm 19.8 19.7 14.0 69 3.3 SE 7 9 4 5 1019.1 1019.1 0.0
27/12:00pm 19.0 18.7 13.4 70 3.2 WSW 7 11 4 6 1019.6 1019.6 0.0
27/11:30am 18.9 18.3 13.5 71 3.1 WNW 9 15 5 8 1020.3 1020.3 0.0
27/11:00am 19.7 18.4 13.6 68 3.5 WNW 13 17 7 9 1020.9 1020.9 0.0
27/10:30am 19.2 17.6 12.7 66 3.6 NW 13 20 7 11 1021.2 1021.2 0.0
27/10:00am 17.8 16.2 12.7 72 2.8 NW 13 17 7 9 1021.7 1021.7 0.0
27/09:30am 16.5 15.1 12.1 75 2.4 NW 11 15 6 8 1021.7 1021.7 0.0
27/09:00am 15.9 13.9 11.5 75 2.4 NW 13 19 7 10 1021.7 1021.7 0.0
27/08:30am 14.9 12.8 11.3 79 1.9 NW 13 17 7 9 1021.8 1021.8 0.0
27/08:00am 13.9 12.1 10.7 81 1.7 NW 11 13 6 7 1021.8 1021.8 0.0
27/07:30am 13.6 11.0 10.8 83 1.5 NW 15 17 8 9 1021.8 1021.8 0.0
27/07:00am 13.4 11.2 10.9 85 1.3 NW 13 17 7 9 1021.6 1021.6 0.0
27/06:30am 13.5 11.3 10.7 83 1.5 NNW 13 15 7 8 1021.4 1021.4 0.0
27/06:00am 12.8 10.5 10.3 85 1.3 NNW 13 15 7 8 1021.3 1021.3 0.0
27/05:30am 12.5 10.6 10.4 87 1.1 NW 11 13 6 7 1021.0 1021.0 0.0
27/05:00am 12.5 10.2 10.6 88 1.0 NW 13 15 7 8 1020.9 1020.9 0.0
27/04:30am 12.3 10.0 10.4 88 1.0 NNW 13 15 7 8 1020.8 1020.8 0.0
27/04:00am 12.4 10.4 10.3 87 1.1 NNW 11 13 6 7 1020.8 1020.8 0.0
27/03:30am 12.6 10.8 10.7 88 1.0 NW 11 13 6 7 1021.0 1021.0 0.0
27/03:00am 12.8 10.6 10.7 87 1.1 NNW 13 15 7 8 1021.2 1021.2 0.0
27/02:30am 12.8 10.6 10.7 87 1.1 NNW 13 15 7 8 1021.3 1021.3 0.0
27/02:00am 13.5 11.4 11.2 86 1.2 NNW 13 15 7 8 1021.3 1021.3 0.0
27/01:30am 13.5 11.8 11.2 86 1.2 NNW 11 15 6 8 1021.5 1021.5 0.0
27/01:00am 14.1 12.5 11.6 85 1.3 NNW 11 13 6 7 1021.5 1021.5 0.0
27/12:30am 14.8 13.3 11.9 83 1.6 NW 11 13 6 7 1021.6 1021.6 0.0
27/12:00am 14.8 12.9 11.9 83 1.6 N 13 15 7 8 1021.7 1021.7 0.0
 
Date/Time
EST
Temp
°C
App
Temp
°C
Dew
Point
°C
Rel
Hum
%
Delta-T
°C
Wind Press
QNH
hPa
Press
MSL
hPa
Rain since
9am
mm
Dir  Spd
km/h
Gust
km/h
Spd
kts
Gust
kts
26/11:30pm 15.0 14.3 12.1 83 1.6 WNW 7 9 4 5 1021.8 1021.8 0.0
26/11:00pm 14.8 13.3 11.8 82 1.6 WSW 11 13 6 7 1021.8 1021.8 0.0
26/10:30pm 15.5 13.7 12.1 80 1.9 WSW 13 22 7 12 1021.9 1021.9 0.0
26/10:00pm 15.6 14.2 12.2 80 1.8 SSE 11 13 6 7 1021.8 1021.8 0.0
26/09:30pm 15.6 13.8 12.2 80 1.9 SSE 13 17 7 9 1021.9 1021.9 0.0
26/09:00pm 17.2 15.6 12.7 75 2.5 SSE 13 17 7 9 1021.9 1021.9 0.0
26/08:30pm 17.0 15.2 12.1 73 2.7 SSE 13 15 7 8 1021.8 1021.8 0.0
26/08:00pm 17.6 15.6 12.7 73 2.7 SSE 15 19 8 10 1021.6 1021.6 0.0
26/07:30pm 17.6 15.7 12.9 74 2.6 SSE 15 19 8 10 1021.3 1021.3 0.0
26/07:00pm 17.6 15.6 12.7 73 2.7 SSE 15 17 8 9 1021.1 1021.1 0.0
26/06:30pm 17.1 15.2 13.0 77 2.3 SSE 15 17 8 9 1021.0 1021.0 0.0
26/06:00pm 17.1 15.8 13.6 80 2.0 S 13 17 7 9 1020.8 1020.8 0.0
26/05:30pm 17.0 15.5 13.1 78 2.2 SW 13 15 7 8 1020.6 1020.6 0.0
26/05:00pm 17.5 15.4 13.6 78 2.2 SSW 17 30 9 16 1020.3 1020.3 0.0
26/04:30pm 17.7 15.5 13.4 76 2.4 S 17 35 9 19 1020.2 1020.2 0.0
26/04:00pm 17.9 15.7 13.2 74 2.6 S 17 22 9 12 1020.1 1020.1 0.0
26/03:30pm 17.9 15.3 13.2 74 2.6 S 19 28 10 15 1020.0 1020.0 0.0
26/03:00pm 18.4 15.9 13.5 73 2.8 S 19 24 10 13 1019.8 1019.8 0.0
26/02:30pm 18.2 15.5 13.5 74 2.7 S 20 26 11 14 1019.7 1019.7 0.0
26/02:00pm 18.5 17.3 11.6 64 3.8 S 9 13 5 7 1019.8 1019.8 0.0
26/01:30pm 18.5 17.0 11.8 65 3.7 S 11 15 6 8 1019.9 1019.9 0.0
26/01:00pm 18.4 16.5 11.7 65 3.7 S 13 24 7 13 1020.2 1020.2 0.0
26/12:30pm 18.0 15.6 11.3 65 3.6 S 15 19 8 10 1020.3 1020.3 0.0
26/12:00pm 17.9 16.0 10.5 62 3.9 SSW 11 15 6 8 1020.7 1020.7 0.0
26/11:30am 17.9 15.9 10.0 60 4.2 SSW 11 17 6 9 1021.1 1021.1 0.0
26/11:00am 17.8 15.6 9.2 57 4.5 WSW 11 26 6 14 1021.4 1021.4 0.0
26/10:30am 17.4 14.8 7.7 53 4.9 W 11 30 6 16 1021.6 1021.6 0.0
26/10:00am 16.4 12.7 7.9 57 4.3 WSW 17 28 9 15 1021.7 1021.7 0.0
26/09:30am 16.2 12.4 7.4 56 4.4 W 17 22 9 12 1021.6 1021.6 0.0
26/09:00am 15.6 11.8 7.4 58 4.1 W 17 20 9 11 1021.6 1021.6 0.0
26/08:30am 14.3 10.1 7.4 63 3.4 WSW 19 24 10 13 1021.5 1021.5 0.0
26/08:00am 13.6 8.3 6.7 63 3.3 WSW 24 30 13 16 1021.1 1021.1 0.0
26/07:30am 13.1 8.2 6.7 65 3.1 WSW 22 28 12 15 1020.9 1020.9 0.0
26/07:00am 12.5 6.4 6.5 67 2.8 WSW 28 33 15 18 1020.7 1020.7 0.0
26/06:30am 12.5 7.2 6.8 68 2.7 WSW 24 30 13 16 1020.5 1020.5 0.0
26/06:00am 12.2 6.5 6.9 70 2.5 WSW 26 30 14 16 1020.2 1020.2 0.0
26/05:30am 11.6 6.7 6.9 73 2.2 W 22 33 12 18 1019.8 1019.8 0.0
26/05:00am 10.3 7.6 7.4 82 1.4 W 11 15 6 8 1019.5 1019.5 0.0
26/04:30am 10.0 7.2 7.1 82 1.4 NW 11 15 6 8 1019.3 1019.3 0.0
26/04:00am 10.8 7.8 7.7 81 1.5 NNW 13 13 7 7 1019.1 1019.1 0.0
26/03:30am 10.8 7.8 7.7 81 1.5 NW 13 15 7 8 1018.9 1018.9 0.0
26/03:00am 11.0 8.9 8.1 82 1.4 NNW 9 13 5 7 1019.0 1019.0 0.0
26/02:30am 11.4 9.3 8.4 82 1.5 WNW 9 11 5 6 1019.1 1019.1 0.0
26/02:00am 12.0 9.7 9.0 82 1.5 NW 11 11 6 6 1019.1 1019.1 0.0
26/01:30am 12.0 9.3 9.0 82 1.5 NW 13 15 7 8 1019.2 1019.2 0.0
26/01:00am 13.0 10.4 9.4 79 1.8 NW 13 15 7 8 1019.3 1019.3 0.0
26/12:30am 13.0 10.0 9.3 78 1.9 NW 15 15 8 8 1019.5 1019.5 0.0
26/12:00am 14.2 12.5 9.8 75 2.3 N 9 11 5 6 1019.6 1019.6 0.0
 
Date/Time
EST
Temp
°C
App
Temp
°C
Dew
Point
°C
Rel
Hum
%
Delta-T
°C
Wind Press
QNH
hPa
Press
MSL
hPa
Rain since
9am
mm
Dir  Spd
km/h
Gust
km/h
Spd
kts
Gust
kts
25/11:30pm 14.2 11.7 9.6 74 2.4 W 13 15 7 8 1019.8 1019.8 0.0
25/11:00pm 14.3 12.0 10.3 77 2.1 WNW 13 13 7 7 1019.8 1019.8 0.0
25/10:30pm 14.2 12.2 10.0 76 2.2 NW 11 17 6 9 1020.0 1020.0 0.0
25/10:00pm 14.9 12.9 10.1 73 2.5 NW 11 13 6 7 1020.2 1020.2 0.0
25/09:30pm 16.4 14.6 10.7 69 3.0 NNW 11 13 6 7 1019.9 1019.9 0.0
25/09:00pm 15.9 13.9 10.2 69 3.0 NNW 11 11 6 6 1019.9 1019.9 0.0
25/08:30pm 15.9 14.2 10.0 68 3.1 NNW 9 9 5 5 1020.0 1020.0 0.0
25/08:00pm 16.3 15.0 9.9 66 3.3 NNW 7 9 4 5 1020.0 1020.0 0.0
25/07:30pm 16.9 15.2 9.8 63 3.7 NNE 9 11 5 6 1019.9 1019.9 0.0
25/07:00pm 17.6 15.5 9.8 60 4.1 NNE 11 13 6 7 1019.7 1019.7 0.0
25/06:30pm 17.2 15.0 9.4 60 4.1 NNE 11 13 6 7 1019.6 1019.6 0.0
25/06:00pm 16.8 14.4 8.8 59 4.1 NE 11 11 6 6 1019.4 1019.4 0.0
25/05:30pm 16.9 14.5 8.6 58 4.3 NE 11 13 6 7 1019.2 1019.2 0.0
25/05:00pm 17.1 14.6 8.3 56 4.5 ENE 11 13 6 7 1019.0 1019.0 0.0

Latest Capital City Observations: Canberra | Sydney | Melbourne | Brisbane | Adelaide | Perth | Hobart | Darwin

Other Formats:

Comma delimited format used in spreadsheet applications
http://www.bom.gov.au/fwo/IDN60901/IDN60901.94767.axf

JavaScript Object Notation format (JSON) in row-major order
http://www.bom.gov.au/fwo/IDN60901/IDN60901.94767.json